createdAt,value
2022-11-29T00:00:23.861Z,8.07
2022-11-29T00:03:27.723Z,6.90
2022-11-29T00:06:33.066Z,7.25
2022-11-29T00:09:35.780Z,6.97
2022-11-29T00:12:38.386Z,7.43
2022-11-29T00:15:41.431Z,5.68
2022-11-29T00:18:43.889Z,7.15
2022-11-29T00:21:46.635Z,5.85
2022-11-29T00:24:49.175Z,6.03
2022-11-29T00:27:52.011Z,6.65
2022-11-29T00:30:54.943Z,5.62
2022-11-29T00:34:02.272Z,7.00
2022-11-29T00:37:04.924Z,6.87
2022-11-29T00:40:08.589Z,6.30
2022-11-29T00:43:10.997Z,7.93
2022-11-29T00:46:13.718Z,5.50
2022-11-29T00:49:16.431Z,7.70
2022-11-29T00:52:19.259Z,6.68
2022-11-29T00:55:21.700Z,7.55
2022-11-29T00:58:24.573Z,5.47
2022-11-29T01:01:27.302Z,7.53
2022-11-29T01:04:30.194Z,5.65
2022-11-29T01:07:32.613Z,5.82
2022-11-29T01:10:35.390Z,6.72
2022-11-29T01:13:38.054Z,5.90
2022-11-29T01:16:40.940Z,6.80
2022-11-29T01:19:49.310Z,7.32
2022-11-29T01:22:53.467Z,5.55
2022-11-29T01:26:17.698Z,6.00
2022-11-29T01:29:20.693Z,6.18
2022-11-29T01:32:23.139Z,5.32
2022-11-29T01:35:25.872Z,6.00
2022-11-29T01:38:28.534Z,6.37
2022-11-29T01:41:33.771Z,5.12
2022-11-29T01:44:36.158Z,5.87
2022-11-29T01:47:43.778Z,5.07
2022-11-29T01:50:46.374Z,4.87
2022-11-29T01:53:49.255Z,5.50
2022-11-29T01:56:52.923Z,5.82
2022-11-29T02:00:02.296Z,4.50
2022-11-29T02:03:17.568Z,4.82
2022-11-29T02:06:20.782Z,6.32
2022-11-29T02:09:23.667Z,4.93
2022-11-29T02:12:43.283Z,5.03
2022-11-29T02:15:54.133Z,4.40
2022-11-29T02:19:53.420Z,5.15
2022-11-29T02:23:04.777Z,5.07
2022-11-29T02:26:41.412Z,4.80
2022-11-29T02:30:05.800Z,7.37
2022-11-29T02:33:31.993Z,4.55
2022-11-29T02:36:42.572Z,3.67
2022-11-29T02:39:51.227Z,4.70
2022-11-29T02:46:18.374Z,4.32
2022-11-29T02:49:45.416Z,5.65
2022-11-29T02:52:53.299Z,4.50
2022-11-29T02:56:26.480Z,5.70
2022-11-29T02:59:52.863Z,4.78
2022-11-29T03:03:10.300Z,4.32
2022-11-29T03:06:32.211Z,5.15
2022-11-29T03:10:09.336Z,5.05
2022-11-29T03:13:47.523Z,5.72
2022-11-29T03:17:08.615Z,6.10
2022-11-29T03:20:20.029Z,5.22
2022-11-29T03:23:59.779Z,6.05
2022-11-29T03:27:09.419Z,4.00
2022-11-29T03:30:14.736Z,4.57
2022-11-29T03:33:38.015Z,5.12
2022-11-29T03:36:56.478Z,5.72
2022-11-29T03:40:08.069Z,4.90
2022-11-29T03:43:17.054Z,4.87
2022-11-29T03:46:42.400Z,6.00
2022-11-29T03:50:05.202Z,4.70
2022-11-29T03:53:25.990Z,4.55
2022-11-29T03:56:37.045Z,5.70
2022-11-29T04:00:02.292Z,5.25
2022-11-29T04:03:33.573Z,4.90
2022-11-29T04:07:13.356Z,4.70
2022-11-29T04:10:43.341Z,4.82
2022-11-29T04:14:27.719Z,4.10
2022-11-29T04:18:14.971Z,5.30
2022-11-29T04:21:46.324Z,6.25
2022-11-29T04:25:10.684Z,4.68
2022-11-29T04:28:40.963Z,5.15
2022-11-29T04:31:58.305Z,5.62
2022-11-29T04:35:32.858Z,5.20
2022-11-29T04:38:35.278Z,4.37
2022-11-29T04:41:48.610Z,5.93
2022-11-29T04:45:06.032Z,4.50
2022-11-29T04:48:23.816Z,4.22
2022-11-29T04:51:35.297Z,5.00
2022-11-29T04:54:48.716Z,4.40
2022-11-29T04:58:09.744Z,6.85
2022-11-29T05:01:21.725Z,5.20
2022-11-29T05:05:08.043Z,4.97
2022-11-29T05:08:22.645Z,6.68
2022-11-29T05:12:10.555Z,5.90
2022-11-29T05:18:30.364Z,2.70
2022-11-29T05:21:38.700Z,3.85
2022-11-29T05:24:59.980Z,5.65
2022-11-29T05:28:10.412Z,4.53
2022-11-29T05:31:31.895Z,6.47
2022-11-29T05:34:54.559Z,4.62
2022-11-29T05:38:20.425Z,4.65
2022-11-29T05:41:44.963Z,5.50
2022-11-29T05:45:08.517Z,5.12
2022-11-29T05:48:18.854Z,4.45
2022-11-29T05:51:25.428Z,4.62
2022-11-29T05:54:42.452Z,5.82
2022-11-29T05:58:27.078Z,5.18
2022-11-29T06:01:41.869Z,4.80
2022-11-29T06:05:09.629Z,4.68
2022-11-29T06:08:36.518Z,6.17
2022-11-29T06:11:44.960Z,5.87
2022-11-29T06:15:16.457Z,5.00
2022-11-29T06:18:46.751Z,3.40
2022-11-29T06:22:01.546Z,4.18
2022-11-29T06:25:36.130Z,5.70
2022-11-29T06:28:46.330Z,6.25
2022-11-29T06:32:31.906Z,4.22
2022-11-29T06:35:34.988Z,4.47
2022-11-29T06:38:38.107Z,4.32
2022-11-29T06:41:40.620Z,5.57
2022-11-29T06:44:44.137Z,4.47
2022-11-29T06:48:00.155Z,5.18
2022-11-29T06:51:28.978Z,5.10
2022-11-29T06:54:48.461Z,5.37
2022-11-29T06:58:06.017Z,4.82
2022-11-29T07:01:18.930Z,6.10
2022-11-29T07:04:34.213Z,4.90
2022-11-29T07:07:37.033Z,5.72
2022-11-29T07:10:41.539Z,6.87
2022-11-29T07:13:44.254Z,7.55
2022-11-29T07:17:07.201Z,6.50
2022-11-29T07:20:18.542Z,5.87
2022-11-29T07:23:42.715Z,4.87
2022-11-29T07:27:01.701Z,6.97
2022-11-29T07:30:19.942Z,5.12
2022-11-29T07:33:47.956Z,5.45
2022-11-29T07:39:59.338Z,5.12
2022-11-29T07:43:02.205Z,5.85
2022-11-29T07:46:04.691Z,4.95
2022-11-29T07:49:10.364Z,5.82
2022-11-29T07:52:14.777Z,4.82
2022-11-29T07:55:20.440Z,5.85
2022-11-29T07:58:23.937Z,6.05
2022-11-29T08:01:26.844Z,5.90
2022-11-29T08:04:30.011Z,4.80
2022-11-29T08:07:35.705Z,5.15
2022-11-29T08:10:38.757Z,5.40
2022-11-29T08:13:41.444Z,4.75
2022-11-29T08:16:44.218Z,7.03
2022-11-29T08:19:46.687Z,6.50
2022-11-29T08:22:58.373Z,5.43
2022-11-29T08:26:02.262Z,6.35
2022-11-29T08:29:04.937Z,6.85
2022-11-29T08:32:09.038Z,6.62
2022-11-29T08:35:11.934Z,6.97
2022-11-29T08:38:14.393Z,4.95
2022-11-29T08:41:17.613Z,7.97
2022-11-29T08:44:20.199Z,9.00
2022-11-29T08:47:38.168Z,9.20
2022-11-29T08:50:40.593Z,7.93
2022-11-29T08:53:43.529Z,7.57
2022-11-29T09:00:09.664Z,7.30
2022-11-29T09:03:31.446Z,7.85
2022-11-29T09:06:41.763Z,7.55
2022-11-29T09:09:44.438Z,7.97
2022-11-29T09:12:48.351Z,7.45
2022-11-29T09:15:50.877Z,6.93
2022-11-29T09:18:55.945Z,7.25
2022-11-29T09:21:58.529Z,7.57
2022-11-29T09:25:04.409Z,6.55
2022-11-29T09:28:07.457Z,7.18
2022-11-29T09:31:13.286Z,7.95
2022-11-29T09:34:16.844Z,9.27
2022-11-29T09:37:19.563Z,8.07
2022-11-29T09:40:30.908Z,7.37
2022-11-29T09:43:48.729Z,8.10
2022-11-29T09:47:09.006Z,7.57
2022-11-29T09:50:36.912Z,7.40
2022-11-29T09:54:18.102Z,8.00
2022-11-29T09:57:26.333Z,6.65
2022-11-29T10:00:30.665Z,8.23
2022-11-29T10:03:44.541Z,7.07
2022-11-29T10:07:01.989Z,6.93
2022-11-29T10:10:20.563Z,7.65
2022-11-29T10:13:29.673Z,7.80
2022-11-29T10:16:44.650Z,9.88
2022-11-29T10:19:52.984Z,9.02
2022-11-29T10:26:20.306Z,7.68
2022-11-29T10:29:23.695Z,7.95
2022-11-29T10:32:30.922Z,6.47
2022-11-29T10:35:33.695Z,8.13
2022-11-29T10:38:36.609Z,8.05
2022-11-29T10:41:39.343Z,7.70
2022-11-29T10:44:42.053Z,7.43
2022-11-29T10:47:47.155Z,7.20
2022-11-29T10:50:52.001Z,8.15
2022-11-29T10:53:56.319Z,7.10
2022-11-29T10:57:01.500Z,8.68
2022-11-29T11:00:10.691Z,8.32
2022-11-29T11:03:24.533Z,7.45
2022-11-29T11:06:43.716Z,8.70
2022-11-29T11:09:53.380Z,7.37
2022-11-29T11:13:19.055Z,8.55
2022-11-29T11:16:25.789Z,8.63
2022-11-29T11:19:32.016Z,6.40
2022-11-29T11:22:39.313Z,7.07
2022-11-29T11:25:42.137Z,9.07
2022-11-29T11:29:01.666Z,7.68
2022-11-29T11:32:05.275Z,7.20
2022-11-29T11:35:22.753Z,8.68
2022-11-29T11:38:25.744Z,8.45
2022-11-29T11:41:54.202Z,7.50
2022-11-29T11:44:56.987Z,9.27
2022-11-29T11:48:11.970Z,7.72
2022-11-29T11:51:25.758Z,8.10
2022-11-29T11:54:29.571Z,7.62
2022-11-29T11:57:32.509Z,8.25
2022-11-29T12:01:13.426Z,8.20
2022-11-29T12:04:24.981Z,8.27
2022-11-29T12:08:06.168Z,6.90
2022-11-29T12:11:07.197Z,8.02
2022-11-29T12:14:21.624Z,7.03
2022-11-29T12:17:46.196Z,7.62
2022-11-29T12:20:59.247Z,8.77
2022-11-29T12:24:10.556Z,7.03
2022-11-29T12:27:15.573Z,8.23
2022-11-29T12:30:19.851Z,7.30
2022-11-29T12:33:49.979Z,7.80
2022-11-29T12:37:11.631Z,7.43
2022-11-29T12:40:58.646Z,6.62
2022-11-29T12:44:10.223Z,9.00
2022-11-29T12:47:37.913Z,7.80
2022-11-29T12:51:06.083Z,8.43
2022-11-29T12:54:16.019Z,7.30
2022-11-29T12:57:21.635Z,8.35
2022-11-29T13:00:28.868Z,8.07
2022-11-29T13:03:59.387Z,8.70
2022-11-29T13:07:13.753Z,7.82
2022-11-29T13:10:48.346Z,8.35
2022-11-29T13:14:34.611Z,7.47
2022-11-29T13:17:32.145Z,9.05
2022-11-29T13:21:24.135Z,7.47
2022-11-29T13:24:42.927Z,8.23
2022-11-29T13:31:18.289Z,8.57
2022-11-29T13:34:42.752Z,8.02
2022-11-29T13:37:55.465Z,8.52
2022-11-29T13:41:30.898Z,8.23
2022-11-29T13:44:44.564Z,7.43
2022-11-29T13:48:10.877Z,8.23
2022-11-29T13:51:28.328Z,8.93
2022-11-29T13:54:33.694Z,9.13
2022-11-29T14:01:21.570Z,9.15
2022-11-29T14:04:41.465Z,8.85
2022-11-29T14:08:21.467Z,6.87
2022-11-29T14:11:28.947Z,6.15
2022-11-29T14:14:59.261Z,9.18
2022-11-29T14:18:08.245Z,7.97
2022-11-29T14:21:11.369Z,7.55
2022-11-29T14:24:32.536Z,9.95
2022-11-29T14:27:34.894Z,7.87
2022-11-29T14:30:43.755Z,9.50
2022-11-29T14:33:46.459Z,7.30
2022-11-29T14:36:59.005Z,8.32
2022-11-29T14:40:12.387Z,8.50
2022-11-29T14:43:36.676Z,8.70
2022-11-29T14:46:39.240Z,9.55
2022-11-29T14:49:45.409Z,9.20
2022-11-29T14:52:52.360Z,10.25
2022-11-29T14:56:47.463Z,8.63
2022-11-29T14:59:54.303Z,7.60
2022-11-29T15:03:01.256Z,9.27
2022-11-29T15:06:03.698Z,9.10
2022-11-29T15:09:17.185Z,9.32
2022-11-29T15:12:28.826Z,8.95
2022-11-29T15:15:50.259Z,9.60
2022-11-29T15:19:30.608Z,9.15
2022-11-29T15:23:01.684Z,6.60
2022-11-29T15:26:04.171Z,10.70
2022-11-29T15:29:19.203Z,7.82
2022-11-29T15:32:25.980Z,9.48
2022-11-29T15:35:29.668Z,8.30
2022-11-29T15:38:43.030Z,10.95
2022-11-29T15:41:45.818Z,10.38
2022-11-29T15:44:49.105Z,10.10
2022-11-29T15:47:52.750Z,9.02
2022-11-29T15:51:22.130Z,10.30
2022-11-29T15:54:29.022Z,8.82
2022-11-29T15:57:34.254Z,10.00
2022-11-29T16:00:37.470Z,9.32
2022-11-29T16:03:43.515Z,10.55
2022-11-29T16:06:47.486Z,8.38
2022-11-29T16:09:57.174Z,9.65
2022-11-29T16:13:06.297Z,8.75
2022-11-29T16:16:14.036Z,9.68
2022-11-29T16:19:30.150Z,10.53
2022-11-29T16:22:32.904Z,11.25
2022-11-29T16:25:50.743Z,10.07
2022-11-29T16:28:57.777Z,10.07
2022-11-29T16:32:11.508Z,8.73
2022-11-29T16:35:21.039Z,11.55
2022-11-29T16:38:23.834Z,10.32
2022-11-29T16:41:38.035Z,10.45
2022-11-29T16:44:40.451Z,9.38
2022-11-29T16:48:01.545Z,9.13
2022-11-29T16:51:09.758Z,9.93
2022-11-29T16:57:22.588Z,9.45
2022-11-29T17:00:31.601Z,9.95
2022-11-29T17:03:34.535Z,11.48
2022-11-29T17:06:38.183Z,10.48
2022-11-29T17:09:41.101Z,9.70
2022-11-29T17:12:48.201Z,8.82
2022-11-29T17:15:50.944Z,11.40
2022-11-29T17:18:53.874Z,12.40
2022-11-29T17:21:56.517Z,12.23
2022-11-29T17:24:59.201Z,11.27
2022-11-29T17:28:01.757Z,11.90
2022-11-29T17:31:18.664Z,11.45
2022-11-29T17:34:21.333Z,10.93
2022-11-29T17:37:24.085Z,10.93
2022-11-29T17:40:27.486Z,11.77
2022-11-29T17:43:30.277Z,12.65
2022-11-29T17:46:35.374Z,10.80
2022-11-29T17:49:38.149Z,12.75
2022-11-29T17:52:41.231Z,11.00
2022-11-29T17:55:43.958Z,12.37
2022-11-29T17:58:46.439Z,12.15
2022-11-29T18:01:49.430Z,11.95
2022-11-29T18:04:52.283Z,10.73
2022-11-29T18:08:00.413Z,11.32
2022-11-29T18:14:11.457Z,9.23
2022-11-29T18:17:14.263Z,9.82
2022-11-29T18:20:16.802Z,10.95
2022-11-29T18:23:19.542Z,11.25
2022-11-29T18:26:24.469Z,13.18
2022-11-29T18:29:28.686Z,11.82
2022-11-29T18:32:33.251Z,9.70
2022-11-29T18:35:36.027Z,11.43
2022-11-29T18:38:39.951Z,11.65
2022-11-29T18:41:45.157Z,11.40
2022-11-29T18:44:47.818Z,12.25
2022-11-29T18:47:50.772Z,10.60
2022-11-29T18:50:53.254Z,9.63
2022-11-29T18:53:56.899Z,11.07
2022-11-29T18:56:59.625Z,10.88
2022-11-29T19:00:03.494Z,11.48
2022-11-29T19:03:06.285Z,13.07
2022-11-29T19:06:14.921Z,11.25
2022-11-29T19:09:21.360Z,12.27
2022-11-29T19:12:24.447Z,10.02
2022-11-29T19:15:26.879Z,11.98
2022-11-29T19:18:30.047Z,9.85
2022-11-29T19:21:34.475Z,10.32
2022-11-29T19:24:37.647Z,11.12
2022-11-29T19:27:40.749Z,10.13
2022-11-29T19:30:43.776Z,10.43
2022-11-29T19:33:47.057Z,9.95
2022-11-29T19:36:49.800Z,12.30
2022-11-29T19:39:52.608Z,12.18
2022-11-29T19:42:55.362Z,11.63
2022-11-29T19:45:57.867Z,10.50
2022-11-29T19:49:01.618Z,9.57
2022-11-29T19:52:04.989Z,11.35
2022-11-29T19:55:08.145Z,10.82
2022-11-29T19:58:10.704Z,9.98
2022-11-29T20:01:25.263Z,10.23
2022-11-29T20:04:28.174Z,11.30
2022-11-29T20:07:30.693Z,11.43
2022-11-29T20:10:34.428Z,12.23
2022-11-29T20:13:38.362Z,12.23
2022-11-29T20:16:41.971Z,12.02
2022-11-29T20:19:44.789Z,13.52
2022-11-29T20:22:47.878Z,13.73
2022-11-29T20:25:51.467Z,11.68
2022-11-29T20:28:54.300Z,11.80
2022-11-29T20:31:56.890Z,11.65
2022-11-29T20:35:02.442Z,13.27
2022-11-29T20:38:41.334Z,10.85
2022-11-29T20:41:53.134Z,11.10
2022-11-29T20:44:57.349Z,13.35
2022-11-29T20:48:15.307Z,12.90
2022-11-29T20:51:17.985Z,11.52
2022-11-29T20:54:20.808Z,12.48
2022-11-29T20:57:23.520Z,13.30
2022-11-29T21:00:26.462Z,12.02
2022-11-29T21:03:29.879Z,13.57
2022-11-29T21:06:37.281Z,12.15
2022-11-29T21:09:39.726Z,13.52
2022-11-29T21:12:45.564Z,15.60
2022-11-29T21:15:48.840Z,13.18
2022-11-29T21:18:54.190Z,15.15
2022-11-29T21:22:27.453Z,12.63
2022-11-29T21:25:51.638Z,13.62
2022-11-29T21:29:07.429Z,12.93
2022-11-29T21:32:22.094Z,12.23
2022-11-29T21:35:24.594Z,11.65
2022-11-29T21:38:29.089Z,11.25
2022-11-29T21:41:31.735Z,11.60
2022-11-29T21:44:34.527Z,11.32
2022-11-29T21:47:36.982Z,13.70
2022-11-29T21:50:39.793Z,12.05
2022-11-29T21:53:45.246Z,12.10
2022-11-29T21:56:48.049Z,14.05
2022-11-29T21:59:50.610Z,13.62
2022-11-29T22:02:53.454Z,11.80
2022-11-29T22:06:01.831Z,13.20
2022-11-29T22:09:04.942Z,12.20
2022-11-29T22:12:31.846Z,12.40
2022-11-29T22:15:31.886Z,11.93
2022-11-29T22:18:35.553Z,12.20
2022-11-29T22:21:43.097Z,13.77
2022-11-29T22:24:46.181Z,12.55
2022-11-29T22:27:49.139Z,12.40
2022-11-29T22:30:51.822Z,12.27
2022-11-29T22:33:55.129Z,14.43
2022-11-29T22:36:57.941Z,12.20
2022-11-29T22:40:00.573Z,11.60
2022-11-29T22:43:03.302Z,14.85
2022-11-29T22:46:23.472Z,13.35
2022-11-29T22:49:26.323Z,12.48
2022-11-29T22:52:28.862Z,11.75
2022-11-29T22:55:31.846Z,14.60
2022-11-29T22:58:34.874Z,13.57
2022-11-29T23:01:40.056Z,10.77
2022-11-29T23:04:44.098Z,13.70
2022-11-29T23:07:47.371Z,11.25
2022-11-29T23:10:57.266Z,11.45
2022-11-29T23:14:00.062Z,11.65
2022-11-29T23:17:02.513Z,14.60
2022-11-29T23:20:06.165Z,12.75
2022-11-29T23:23:09.567Z,14.10
2022-11-29T23:26:38.816Z,12.13
2022-11-29T23:29:41.294Z,12.23
2022-11-29T23:32:43.997Z,11.93
2022-11-29T23:35:46.583Z,12.13
2022-11-29T23:38:49.499Z,11.57
2022-11-29T23:41:51.979Z,11.65
2022-11-29T23:44:54.720Z,13.38
2022-11-29T23:47:57.759Z,13.25
2022-11-29T23:51:01.716Z,11.80
2022-11-29T23:54:04.366Z,11.82
2022-11-29T23:57:07.441Z,11.38
